createdAt,value
2023-01-09T00:00:24.005Z,57.83
2023-01-09T00:05:46.968Z,57.50
2023-01-09T00:10:52.461Z,59.00
2023-01-09T00:15:56.025Z,56.63
2023-01-09T00:21:03.807Z,57.40
2023-01-09T00:26:06.839Z,60.00
2023-01-09T00:31:10.888Z,57.70
2023-01-09T00:36:14.102Z,58.07
2023-01-09T00:41:20.677Z,56.37
2023-01-09T00:46:28.051Z,53.70
2023-01-09T00:51:31.509Z,57.73
2023-01-09T00:56:35.374Z,57.53
2023-01-09T01:01:38.699Z,55.40
2023-01-09T01:07:00.392Z,58.50
2023-01-09T01:12:07.499Z,54.37
2023-01-09T01:17:10.473Z,49.93
2023-01-09T01:22:13.710Z,54.03
2023-01-09T01:27:16.672Z,55.50
2023-01-09T01:32:19.928Z,54.23
2023-01-09T01:37:23.834Z,54.13
2023-01-09T01:42:26.863Z,54.73
2023-01-09T01:47:30.028Z,56.23
2023-01-09T01:52:34.435Z,55.20
2023-01-09T01:57:41.771Z,53.67
2023-01-09T02:02:46.213Z,56.33
2023-01-09T02:07:49.630Z,59.00
2023-01-09T02:12:52.844Z,57.73
2023-01-09T02:18:24.235Z,63.53
2023-01-09T02:23:46.917Z,62.97
2023-01-09T02:29:06.184Z,63.97
2023-01-09T02:34:31.208Z,56.93
2023-01-09T02:39:56.181Z,60.10
2023-01-09T02:44:59.368Z,59.63
2023-01-09T02:50:09.482Z,64.83
2023-01-09T02:55:27.911Z,66.07
2023-01-09T03:00:49.819Z,63.27
2023-01-09T03:06:06.963Z,63.60
2023-01-09T03:11:12.214Z,63.47
2023-01-09T03:16:18.907Z,64.80
2023-01-09T03:21:22.836Z,62.77
2023-01-09T03:26:26.395Z,66.43
2023-01-09T03:31:29.554Z,69.10
2023-01-09T03:36:33.006Z,62.87
2023-01-09T03:41:36.246Z,69.47
2023-01-09T03:46:39.577Z,62.90
2023-01-09T03:51:42.705Z,67.47
2023-01-09T03:56:46.092Z,64.90
2023-01-09T04:01:49.239Z,73.43
2023-01-09T04:06:52.321Z,73.17
2023-01-09T04:11:55.402Z,72.27
2023-01-09T04:16:58.319Z,71.50
2023-01-09T04:22:01.464Z,70.73
2023-01-09T04:27:04.524Z,76.47
2023-01-09T04:32:07.814Z,72.00
2023-01-09T04:37:11.141Z,72.33
2023-01-09T04:42:14.192Z,75.50
2023-01-09T04:47:17.206Z,73.33
2023-01-09T04:52:20.825Z,75.97
2023-01-09T04:57:24.072Z,75.50
2023-01-09T05:02:27.139Z,79.23
2023-01-09T05:07:30.224Z,73.00
2023-01-09T05:12:34.895Z,76.07
2023-01-09T05:17:38.022Z,72.13
2023-01-09T05:22:41.108Z,72.10
2023-01-09T05:27:46.488Z,77.20
2023-01-09T05:32:49.452Z,75.87
2023-01-09T05:37:52.713Z,74.77
2023-01-09T05:42:56.505Z,68.67
2023-01-09T05:47:59.725Z,75.77
2023-01-09T05:53:02.901Z,70.23
2023-01-09T05:58:06.384Z,72.97
2023-01-09T06:03:09.398Z,73.00
2023-01-09T06:08:12.224Z,74.43
2023-01-09T06:13:15.682Z,74.00
2023-01-09T06:18:18.664Z,74.57
2023-01-09T06:23:21.530Z,74.20
2023-01-09T06:28:26.962Z,76.90
2023-01-09T06:33:30.147Z,78.70
2023-01-09T06:38:33.103Z,77.33
2023-01-09T06:43:36.278Z,76.43
2023-01-09T06:48:39.405Z,77.30
2023-01-09T06:53:42.286Z,77.37
2023-01-09T06:58:45.182Z,74.47
2023-01-09T07:03:48.789Z,80.87
2023-01-09T07:08:51.737Z,87.30
2023-01-09T07:13:54.721Z,87.77
2023-01-09T07:18:57.793Z,80.60
2023-01-09T07:24:00.909Z,84.17
2023-01-09T07:29:03.858Z,89.27
2023-01-09T07:34:06.689Z,78.73
2023-01-09T07:39:09.886Z,89.37
2023-01-09T07:44:13.381Z,82.10
2023-01-09T07:49:16.447Z,83.60
2023-01-09T07:54:19.388Z,80.90
2023-01-09T07:59:22.583Z,93.30
2023-01-09T08:04:25.387Z,83.63
2023-01-09T08:09:29.040Z,79.70
2023-01-09T08:14:32.271Z,87.07
2023-01-09T08:19:35.194Z,84.00
2023-01-09T08:24:38.012Z,91.93
2023-01-09T08:29:40.915Z,87.27
2023-01-09T08:34:44.050Z,130.30
2023-01-09T08:39:48.655Z,94.40
2023-01-09T08:45:10.330Z,91.80
2023-01-09T08:50:13.630Z,93.73
2023-01-09T08:55:16.923Z,90.00
2023-01-09T09:00:22.189Z,96.53
2023-01-09T09:05:26.854Z,86.90
2023-01-09T09:10:30.541Z,89.57
2023-01-09T09:15:35.059Z,87.93
2023-01-09T09:20:39.099Z,88.57
2023-01-09T09:25:42.255Z,89.97
2023-01-09T09:30:47.903Z,82.97
2023-01-09T09:35:52.381Z,81.37
2023-01-09T09:41:04.955Z,84.03
2023-01-09T09:46:19.985Z,80.40
2023-01-09T09:51:22.965Z,80.03
2023-01-09T09:56:26.814Z,83.87
2023-01-09T10:01:53.331Z,82.97
2023-01-09T10:07:09.991Z,78.87
2023-01-09T10:12:26.084Z,77.57
2023-01-09T10:17:40.874Z,84.07
2023-01-09T10:23:17.919Z,83.53
2023-01-09T10:28:39.386Z,82.00
2023-01-09T10:33:56.387Z,84.03
2023-01-09T10:39:04.569Z,79.77
2023-01-09T10:44:20.604Z,79.13
2023-01-09T10:49:26.830Z,81.53
2023-01-09T10:54:33.069Z,85.23
2023-01-09T10:59:36.404Z,89.93
2023-01-09T11:04:40.011Z,82.73
2023-01-09T11:10:01.015Z,84.23
2023-01-09T11:15:16.494Z,86.53
2023-01-09T11:20:27.643Z,85.17
2023-01-09T11:25:30.667Z,105.63
2023-01-09T11:30:37.585Z,80.77
2023-01-09T11:35:53.605Z,83.47
2023-01-09T11:41:02.021Z,81.50
2023-01-09T11:46:08.360Z,83.40
2023-01-09T11:51:20.894Z,93.73
2023-01-09T11:56:24.211Z,95.13
2023-01-09T12:01:52.101Z,95.17
2023-01-09T12:07:25.653Z,101.90
2023-01-09T12:12:49.780Z,107.17
2023-01-09T12:18:16.359Z,94.63
2023-01-09T12:23:22.446Z,83.83
2023-01-09T12:28:43.777Z,94.97
2023-01-09T12:33:56.325Z,96.03
2023-01-09T12:39:17.673Z,89.57
2023-01-09T12:44:55.939Z,102.40
2023-01-09T12:50:22.023Z,104.97
2023-01-09T12:55:26.379Z,90.40
2023-01-09T13:00:35.713Z,94.67
2023-01-09T13:05:47.257Z,102.67
2023-01-09T13:10:53.710Z,92.57
2023-01-09T13:16:05.165Z,97.93
2023-01-09T13:21:10.969Z,100.57
2023-01-09T13:26:27.385Z,97.73
2023-01-09T13:31:48.015Z,108.40
2023-01-09T13:36:52.979Z,100.00
2023-01-09T13:42:18.637Z,101.60
2023-01-09T13:47:25.544Z,102.53
2023-01-09T13:52:37.208Z,100.20
2023-01-09T13:57:48.022Z,104.10
2023-01-09T14:02:56.275Z,101.67
2023-01-09T14:08:32.317Z,101.43
2023-01-09T14:13:45.843Z,104.47
2023-01-09T14:18:51.710Z,103.63
2023-01-09T14:24:06.701Z,106.40
2023-01-09T14:29:29.520Z,105.10
2023-01-09T14:34:36.360Z,102.27
2023-01-09T14:39:44.247Z,105.90
2023-01-09T14:45:01.680Z,106.03
2023-01-09T14:50:34.620Z,104.47
2023-01-09T14:55:53.066Z,100.80
2023-01-09T15:01:16.928Z,98.47
2023-01-09T15:06:25.356Z,102.30
2023-01-09T15:11:28.885Z,93.07
2023-01-09T15:16:32.661Z,97.67
2023-01-09T15:21:35.757Z,93.43
2023-01-09T15:26:40.085Z,94.67
2023-01-09T15:31:46.069Z,96.33
2023-01-09T15:36:50.731Z,87.83
2023-01-09T15:42:13.660Z,97.10
2023-01-09T15:47:19.475Z,94.27
2023-01-09T15:52:23.276Z,87.83
2023-01-09T15:57:26.391Z,87.30
2023-01-09T16:02:48.049Z,84.63
2023-01-09T16:07:51.691Z,90.43
2023-01-09T16:12:54.955Z,89.93
2023-01-09T16:18:16.128Z,82.00
2023-01-09T16:23:21.125Z,86.30
2023-01-09T16:28:29.019Z,91.73
2023-01-09T16:33:33.427Z,91.30
2023-01-09T16:38:38.821Z,87.13
2023-01-09T16:43:41.747Z,89.20
2023-01-09T16:48:44.907Z,91.20
2023-01-09T16:53:48.907Z,86.67
2023-01-09T16:58:55.475Z,91.87
2023-01-09T17:03:58.470Z,93.00
2023-01-09T17:09:01.519Z,86.20
2023-01-09T17:14:04.786Z,94.40
2023-01-09T17:19:10.696Z,90.07
2023-01-09T17:24:32.711Z,104.77
2023-01-09T17:29:36.433Z,94.53
2023-01-09T17:34:42.066Z,94.63
2023-01-09T17:39:45.897Z,102.30
2023-01-09T17:49:45.818Z,105.33
2023-01-09T17:54:49.065Z,112.57
2023-01-09T17:59:52.450Z,137.77
2023-01-09T18:04:55.766Z,106.53
2023-01-09T18:09:59.832Z,96.47
2023-01-09T18:15:03.021Z,100.03
2023-01-09T18:20:06.783Z,99.67
2023-01-09T18:25:10.485Z,99.67
2023-01-09T18:30:13.886Z,101.83
2023-01-09T18:35:17.004Z,105.83
2023-01-09T18:40:20.087Z,128.93
2023-01-09T18:45:25.736Z,115.43
2023-01-09T18:50:28.979Z,107.37
2023-01-09T18:55:32.643Z,102.80
2023-01-09T19:00:37.166Z,118.80
2023-01-09T19:05:40.309Z,107.10
2023-01-09T19:10:43.500Z,103.37
2023-01-09T19:15:46.666Z,96.90
2023-01-09T19:20:49.760Z,98.60
2023-01-09T19:25:53.917Z,105.67
2023-01-09T19:30:59.097Z,102.80
2023-01-09T19:36:02.181Z,109.13
2023-01-09T19:41:18.224Z,115.33
2023-01-09T19:46:25.185Z,108.80
2023-01-09T19:51:28.373Z,103.27
2023-01-09T19:56:34.305Z,107.17
2023-01-09T20:01:42.091Z,101.13
2023-01-09T20:06:48.091Z,95.57
2023-01-09T20:11:51.682Z,102.43
2023-01-09T20:17:00.146Z,100.20
2023-01-09T20:22:03.395Z,88.07
2023-01-09T20:27:06.754Z,101.60
2023-01-09T20:32:10.546Z,86.03
2023-01-09T20:37:13.899Z,68.30
2023-01-09T20:42:19.772Z,71.00
2023-01-09T20:47:22.990Z,66.30
2023-01-09T20:52:27.928Z,57.93
2023-01-09T20:57:31.145Z,52.83
2023-01-09T21:02:35.348Z,57.77
2023-01-09T21:07:38.423Z,49.17
2023-01-09T21:12:42.245Z,46.30
2023-01-09T21:17:46.008Z,48.77
2023-01-09T21:22:49.955Z,42.13
2023-01-09T21:27:53.348Z,44.07
2023-01-09T21:32:56.458Z,40.30
2023-01-09T21:37:59.446Z,39.73
2023-01-09T21:43:21.303Z,35.00
2023-01-09T21:48:24.345Z,35.73
2023-01-09T21:53:27.713Z,37.80
2023-01-09T21:58:30.596Z,34.97
2023-01-09T22:03:33.886Z,36.47
2023-01-09T22:08:37.085Z,39.13
2023-01-09T22:13:40.391Z,35.93
2023-01-09T22:18:43.651Z,41.67
2023-01-09T22:23:46.810Z,39.53
2023-01-09T22:28:50.954Z,32.57
2023-01-09T22:33:58.658Z,29.97
2023-01-09T22:39:02.382Z,30.57
2023-01-09T22:44:05.800Z,30.80
2023-01-09T22:49:12.282Z,30.67
2023-01-09T22:54:15.558Z,30.97
2023-01-09T22:59:18.583Z,26.97
2023-01-09T23:04:22.211Z,26.43
2023-01-09T23:09:25.585Z,30.60
2023-01-09T23:14:32.634Z,28.67
2023-01-09T23:19:36.031Z,29.53
2023-01-09T23:24:39.083Z,30.47
2023-01-09T23:29:42.104Z,30.33
2023-01-09T23:34:47.152Z,27.40
2023-01-09T23:39:50.216Z,29.43
2023-01-09T23:44:53.143Z,34.47
2023-01-09T23:49:56.036Z,26.83
2023-01-09T23:54:59.057Z,25.33
